createdAt,value
2018-05-24T00:00:47.221Z,16.60
2018-05-24T00:03:14.817Z,16.60
2018-05-24T00:05:42.452Z,16.60
2018-05-24T00:08:10.077Z,16.60
2018-05-24T00:10:38.441Z,16.70
2018-05-24T00:13:06.818Z,16.70
2018-05-24T00:15:35.225Z,16.70
2018-05-24T00:18:02.879Z,16.70
2018-05-24T00:20:30.530Z,16.70
2018-05-24T00:22:58.929Z,16.70
2018-05-24T00:25:26.521Z,16.80
2018-05-24T00:27:54.148Z,16.80
2018-05-24T00:30:21.815Z,16.70
2018-05-24T00:32:49.399Z,16.70
2018-05-24T00:35:17.025Z,16.60
2018-05-24T00:37:44.623Z,16.70
2018-05-24T00:40:12.237Z,16.70
2018-05-24T00:42:39.909Z,16.70
2018-05-24T00:45:07.539Z,16.60
2018-05-24T00:47:35.959Z,16.50
2018-05-24T00:50:03.571Z,16.40
2018-05-24T00:52:31.168Z,16.40
2018-05-24T00:55:10.660Z,16.40
2018-05-24T00:57:38.375Z,16.40
2018-05-24T01:00:06.016Z,16.40
2018-05-24T01:02:34.380Z,16.30
2018-05-24T01:05:02.776Z,16.30
2018-05-24T01:07:30.421Z,16.30
2018-05-24T01:09:58.801Z,16.30
2018-05-24T01:12:27.162Z,16.30
2018-05-24T01:14:54.800Z,16.30
2018-05-24T01:17:22.384Z,16.30
2018-05-24T01:19:50.014Z,16.20
2018-05-24T01:22:17.624Z,16.20
2018-05-24T01:24:46.029Z,16.20
2018-05-24T01:27:13.631Z,16.10
2018-05-24T01:29:42.029Z,16.10
2018-05-24T01:32:10.408Z,16.10
2018-05-24T01:34:38.797Z,16.10
2018-05-24T01:37:19.096Z,16.00
2018-05-24T01:39:46.689Z,16.00
2018-05-24T01:42:14.293Z,16.00
2018-05-24T01:44:41.920Z,16.00
2018-05-24T01:47:10.310Z,16.00
2018-05-24T01:49:38.675Z,16.00
2018-05-24T01:52:07.036Z,16.00
2018-05-24T01:54:34.632Z,16.00
2018-05-24T01:57:02.991Z,15.90
2018-05-24T01:59:31.448Z,15.90
2018-05-24T02:01:59.060Z,15.90
2018-05-24T02:04:26.649Z,15.90
2018-05-24T02:06:54.246Z,15.90
2018-05-24T02:09:21.892Z,15.90
2018-05-24T02:11:49.500Z,15.90
2018-05-24T02:14:17.129Z,15.90
2018-05-24T02:16:45.549Z,15.80
2018-05-24T02:19:13.185Z,15.80
2018-05-24T02:21:41.563Z,15.70
2018-05-24T02:24:09.167Z,15.70
2018-05-24T02:26:36.841Z,15.80
2018-05-24T02:29:04.494Z,15.70
2018-05-24T02:31:32.100Z,15.80
2018-05-24T02:34:00.448Z,15.70
2018-05-24T02:36:28.035Z,15.70
2018-05-24T02:38:56.458Z,15.70
2018-05-24T02:41:24.075Z,15.70
2018-05-24T02:43:52.491Z,15.70
2018-05-24T02:46:20.137Z,15.60
2018-05-24T02:48:47.731Z,15.60
2018-05-24T02:51:15.355Z,15.60
2018-05-24T02:53:42.996Z,15.60
2018-05-24T02:56:11.371Z,15.50
2018-05-24T02:58:39.763Z,15.50
2018-05-24T03:01:07.408Z,15.50
2018-05-24T03:03:35.810Z,15.60
2018-05-24T03:06:03.440Z,15.60
2018-05-24T03:08:32.812Z,15.50
2018-05-24T03:11:00.460Z,15.50
2018-05-24T03:13:28.933Z,15.40
2018-05-24T03:15:56.511Z,15.40
2018-05-24T03:18:24.126Z,15.40
2018-05-24T03:20:51.743Z,15.40
2018-05-24T03:23:19.412Z,15.40
2018-05-24T03:25:47.091Z,15.40
2018-05-24T03:28:15.496Z,15.50
2018-05-24T03:30:43.137Z,15.50
2018-05-24T03:33:11.494Z,15.50
2018-05-24T03:35:39.101Z,15.40
2018-05-24T03:38:06.716Z,15.50
2018-05-24T03:40:34.361Z,15.50
2018-05-24T03:43:01.990Z,15.50
2018-05-24T03:45:29.600Z,15.50
2018-05-24T03:47:58.013Z,15.50
2018-05-24T03:50:25.618Z,15.50
2018-05-24T03:52:53.268Z,15.50
2018-05-24T03:55:20.894Z,15.50
2018-05-24T03:57:48.609Z,15.50
2018-05-24T04:00:28.020Z,15.50
2018-05-24T04:03:07.487Z,15.50
2018-05-24T04:05:35.116Z,15.60
2018-05-24T04:08:02.746Z,15.70
2018-05-24T04:10:30.360Z,15.70
2018-05-24T04:12:57.978Z,15.70
2018-05-24T04:15:25.620Z,15.60
2018-05-24T04:17:53.211Z,15.60
2018-05-24T04:20:20.841Z,15.60
2018-05-24T04:22:48.441Z,15.70
2018-05-24T04:25:16.054Z,15.70
2018-05-24T04:27:43.769Z,15.60
2018-05-24T04:30:11.388Z,15.60
2018-05-24T04:32:38.992Z,15.50
2018-05-24T04:35:06.577Z,15.50
2018-05-24T04:37:34.979Z,15.40
2018-05-24T04:40:02.595Z,15.40
2018-05-24T04:42:30.197Z,15.50
2018-05-24T04:44:57.820Z,15.50
2018-05-24T04:47:25.436Z,15.50
2018-05-24T04:49:53.055Z,15.50
2018-05-24T04:52:20.691Z,15.50
2018-05-24T04:54:48.285Z,15.40
2018-05-24T04:57:16.650Z,15.40
2018-05-24T04:59:44.280Z,15.40
2018-05-24T05:02:11.879Z,15.40
2018-05-24T05:04:40.272Z,15.40
2018-05-24T05:07:07.890Z,15.40
2018-05-24T05:09:35.489Z,15.40
2018-05-24T05:12:03.860Z,15.30
2018-05-24T05:14:32.255Z,15.20
2018-05-24T05:17:00.670Z,15.20
2018-05-24T05:19:28.287Z,15.20
2018-05-24T05:21:55.910Z,15.30
2018-05-24T05:24:23.530Z,15.30
2018-05-24T05:26:51.190Z,15.30
2018-05-24T05:29:18.829Z,15.30
2018-05-24T05:31:46.411Z,15.30
2018-05-24T05:34:13.997Z,15.30
2018-05-24T05:36:41.610Z,15.30
2018-05-24T05:39:09.214Z,15.40
2018-05-24T05:41:36.852Z,15.50
2018-05-24T05:44:04.472Z,15.50
2018-05-24T05:46:32.870Z,15.60
2018-05-24T05:49:00.500Z,15.60
2018-05-24T05:51:28.101Z,15.60
2018-05-24T05:53:55.758Z,15.60
2018-05-24T05:56:23.420Z,15.60
2018-05-24T05:58:51.056Z,15.70
2018-05-24T06:01:19.443Z,15.80
2018-05-24T06:03:47.820Z,16.00
2018-05-24T06:06:16.221Z,16.00
2018-05-24T06:08:43.813Z,16.00
2018-05-24T06:11:11.421Z,16.10
2018-05-24T06:13:39.036Z,16.20
2018-05-24T06:16:06.681Z,16.20
2018-05-24T06:18:34.315Z,16.30
2018-05-24T06:21:01.940Z,16.30
2018-05-24T06:23:30.311Z,16.30
2018-05-24T06:25:57.927Z,16.30
2018-05-24T06:28:25.554Z,16.40
2018-05-24T06:30:53.228Z,16.40
2018-05-24T06:33:20.832Z,16.40
2018-05-24T06:35:48.432Z,16.50
2018-05-24T06:38:16.826Z,16.60
2018-05-24T06:40:44.449Z,16.60
2018-05-24T06:43:12.065Z,16.70
2018-05-24T06:45:39.685Z,16.70
2018-05-24T06:48:08.046Z,16.70
2018-05-24T06:50:35.650Z,16.70
2018-05-24T06:53:03.273Z,16.80
2018-05-24T06:55:31.669Z,16.80
2018-05-24T06:58:00.027Z,16.80
2018-05-24T07:00:27.657Z,16.80
2018-05-24T07:02:55.270Z,16.90
2018-05-24T07:05:23.674Z,16.90
2018-05-24T07:07:51.297Z,16.90
2018-05-24T07:10:19.732Z,17.00
2018-05-24T07:12:47.327Z,17.00
2018-05-24T07:15:14.950Z,17.10
2018-05-24T07:17:42.571Z,17.10
2018-05-24T07:20:10.210Z,17.10
2018-05-24T07:22:37.831Z,17.00
2018-05-24T07:25:05.489Z,17.00
2018-05-24T07:27:33.080Z,17.00
2018-05-24T07:30:00.677Z,17.00
2018-05-24T07:32:28.308Z,17.10
2018-05-24T07:34:55.941Z,17.20
2018-05-24T07:37:23.520Z,17.20
2018-05-24T07:39:51.108Z,17.20
2018-05-24T07:42:19.449Z,17.40
2018-05-24T07:44:47.096Z,17.40
2018-05-24T07:47:14.676Z,17.40
2018-05-24T07:49:42.321Z,17.50
2018-05-24T07:52:09.940Z,17.60
2018-05-24T07:54:37.571Z,17.70
2018-05-24T07:57:06.004Z,17.90
2018-05-24T07:59:33.620Z,17.80
2018-05-24T08:02:01.959Z,18.00
2018-05-24T08:04:29.561Z,18.00
2018-05-24T08:06:57.958Z,18.10
2018-05-24T08:09:25.616Z,18.10
2018-05-24T08:11:53.221Z,18.20
2018-05-24T08:14:20.866Z,18.20
2018-05-24T08:16:48.462Z,18.30
2018-05-24T08:19:16.060Z,18.30
2018-05-24T08:21:43.698Z,18.40
2018-05-24T08:24:12.104Z,18.40
2018-05-24T08:26:39.724Z,18.30
2018-05-24T08:29:08.089Z,18.40
2018-05-24T08:31:35.693Z,18.40
2018-05-24T08:34:03.320Z,18.40
2018-05-24T08:36:31.716Z,18.50
2018-05-24T08:39:00.100Z,18.50
2018-05-24T08:41:27.723Z,18.50
2018-05-24T08:43:55.350Z,18.60
2018-05-24T08:46:23.001Z,18.60
2018-05-24T08:48:50.606Z,18.80
2018-05-24T08:51:18.221Z,18.90
2018-05-24T08:53:45.820Z,18.90
2018-05-24T08:56:13.427Z,19.00
2018-05-24T08:58:41.057Z,19.00
2018-05-24T09:01:09.416Z,19.30
2018-05-24T09:03:37.038Z,19.30
2018-05-24T09:06:04.634Z,19.40
2018-05-24T09:08:32.229Z,19.50
2018-05-24T09:11:00.609Z,19.60
2018-05-24T09:13:28.974Z,19.60
2018-05-24T09:15:57.350Z,19.70
2018-05-24T09:18:25.731Z,19.80
2018-05-24T09:20:54.090Z,20.00
2018-05-24T09:23:22.575Z,20.10
2018-05-24T09:25:50.968Z,20.10
2018-05-24T09:28:19.351Z,20.30
2018-05-24T09:30:47.712Z,20.40
2018-05-24T09:33:15.309Z,20.40
2018-05-24T09:35:42.910Z,20.50
2018-05-24T09:38:10.541Z,20.70
2018-05-24T09:40:38.147Z,20.90
2018-05-24T09:43:05.770Z,20.80
2018-05-24T09:45:33.380Z,21.10
2018-05-24T09:48:01.782Z,21.30
2018-05-24T09:50:29.419Z,21.30
2018-05-24T09:52:57.821Z,21.40
2018-05-24T09:55:25.468Z,21.40
2018-05-24T09:57:53.840Z,21.30
2018-05-24T10:00:22.929Z,21.20
2018-05-24T10:02:51.291Z,21.30
2018-05-24T10:05:18.902Z,21.40
2018-05-24T10:07:46.544Z,21.40
2018-05-24T10:10:14.893Z,21.80
2018-05-24T10:12:42.540Z,21.70
2018-05-24T10:15:10.127Z,22.00
2018-05-24T10:17:38.487Z,22.40
2018-05-24T10:20:07.266Z,22.60
2018-05-24T10:22:34.879Z,22.60
2018-05-24T10:25:02.534Z,22.70
2018-05-24T10:27:30.134Z,22.80
2018-05-24T10:29:57.770Z,22.80
2018-05-24T10:32:25.394Z,22.70
2018-05-24T10:34:53.789Z,22.60
2018-05-24T10:37:21.420Z,22.50
2018-05-24T10:39:49.100Z,22.50
2018-05-24T10:42:17.475Z,22.30
2018-05-24T10:44:45.908Z,22.20
2018-05-24T10:47:13.577Z,22.10
2018-05-24T10:49:41.209Z,22.00
2018-05-24T10:52:08.835Z,21.80
2018-05-24T10:54:37.189Z,21.70
2018-05-24T10:57:04.806Z,21.60
2018-05-24T10:59:32.456Z,21.70
2018-05-24T11:02:00.817Z,21.70
2018-05-24T11:04:28.431Z,21.60
2018-05-24T11:06:56.060Z,21.60
2018-05-24T11:09:23.658Z,21.60
2018-05-24T11:11:51.279Z,21.60
2018-05-24T11:14:18.919Z,21.50
2018-05-24T11:16:47.293Z,21.40
2018-05-24T11:19:15.670Z,21.40
2018-05-24T11:21:44.052Z,21.20
2018-05-24T11:24:12.450Z,21.20
2018-05-24T11:26:40.080Z,21.10
2018-05-24T11:29:08.458Z,21.10
2018-05-24T11:31:36.817Z,21.10
2018-05-24T11:34:04.439Z,21.10
2018-05-24T11:36:32.059Z,21.20
2018-05-24T11:39:00.441Z,21.10
2018-05-24T11:41:28.810Z,21.10
2018-05-24T11:43:57.190Z,21.20
2018-05-24T11:46:25.553Z,21.30
2018-05-24T11:48:53.179Z,21.20
2018-05-24T11:51:20.834Z,21.40
2018-05-24T11:53:48.473Z,21.50
2018-05-24T11:56:16.073Z,21.70
2018-05-24T11:58:43.720Z,21.70
2018-05-24T12:01:11.345Z,21.70
2018-05-24T12:03:38.983Z,21.80
2018-05-24T12:06:06.570Z,21.80
2018-05-24T12:08:34.171Z,22.00
2018-05-24T12:11:01.800Z,22.20
2018-05-24T12:13:29.414Z,22.30
2018-05-24T12:15:57.064Z,22.40
2018-05-24T12:18:24.701Z,22.40
2018-05-24T12:20:52.329Z,22.40
2018-05-24T12:23:19.964Z,22.60
2018-05-24T12:25:47.580Z,22.60
2018-05-24T12:28:15.219Z,22.60
2018-05-24T12:30:42.849Z,22.40
2018-05-24T12:33:11.258Z,21.70
2018-05-24T12:35:38.975Z,21.70
2018-05-24T12:38:06.558Z,21.60
2018-05-24T12:40:34.951Z,21.40
2018-05-24T12:43:02.566Z,21.40
2018-05-24T12:45:30.191Z,21.10
2018-05-24T12:47:57.794Z,21.00
2018-05-24T12:50:25.389Z,20.90
2018-05-24T12:52:53.072Z,20.80
2018-05-24T12:55:20.690Z,20.60
2018-05-24T12:57:49.187Z,20.30
2018-05-24T13:00:16.825Z,20.30
2018-05-24T13:02:44.442Z,20.30
2018-05-24T13:05:12.110Z,20.10
2018-05-24T13:07:39.737Z,20.00
2018-05-24T13:10:07.369Z,19.90
2018-05-24T13:12:35.769Z,19.70
2018-05-24T13:15:03.395Z,19.70
2018-05-24T13:17:31.007Z,19.60
2018-05-24T13:19:58.611Z,19.70
2018-05-24T13:22:26.229Z,19.60
2018-05-24T13:24:53.845Z,19.50
2018-05-24T13:27:21.470Z,19.40
2018-05-24T13:29:49.100Z,19.40
2018-05-24T13:32:16.730Z,19.40
2018-05-24T13:34:45.136Z,19.50
2018-05-24T13:37:12.720Z,19.50
2018-05-24T13:39:40.294Z,19.60
2018-05-24T13:42:07.930Z,19.80
2018-05-24T13:44:35.569Z,20.00
2018-05-24T13:47:03.211Z,20.00
2018-05-24T13:49:31.604Z,20.40
2018-05-24T13:51:59.980Z,20.50
2018-05-24T13:54:28.406Z,20.60
2018-05-24T13:56:56.010Z,20.60
2018-05-24T13:59:24.419Z,20.70
2018-05-24T14:01:52.032Z,20.70
2018-05-24T14:04:20.410Z,20.70
2018-05-24T14:06:48.051Z,20.60
2018-05-24T14:09:15.702Z,20.60
2018-05-24T14:11:43.342Z,20.70
2018-05-24T14:14:10.949Z,21.00
2018-05-24T14:16:38.542Z,21.30
2018-05-24T14:19:06.170Z,21.40
2018-05-24T14:21:33.779Z,21.60
2018-05-24T14:24:01.420Z,21.50
2018-05-24T14:26:29.085Z,21.40
2018-05-24T14:28:56.700Z,21.20
2018-05-24T14:31:24.330Z,21.00
2018-05-24T14:33:51.939Z,20.80
2018-05-24T14:36:19.555Z,20.70
2018-05-24T14:38:47.157Z,20.70
2018-05-24T14:41:14.820Z,20.60
2018-05-24T14:43:42.460Z,20.50
2018-05-24T14:46:10.060Z,20.50
2018-05-24T14:48:38.466Z,20.40
2018-05-24T14:51:06.080Z,20.40
2018-05-24T14:53:34.456Z,20.50
2018-05-24T14:56:02.080Z,20.40
2018-05-24T14:58:29.701Z,20.50
2018-05-24T15:00:57.331Z,20.50
2018-05-24T15:03:24.931Z,20.50
2018-05-24T15:05:52.548Z,20.50
2018-05-24T15:08:20.202Z,20.50
2018-05-24T15:10:47.819Z,20.50
2018-05-24T15:13:27.289Z,20.70
2018-05-24T15:15:54.924Z,20.80
2018-05-24T15:18:22.547Z,21.10
2018-05-24T15:20:50.936Z,21.90
2018-05-24T15:23:19.290Z,22.40
2018-05-24T15:25:46.930Z,22.30
2018-05-24T15:28:14.550Z,22.70
2018-05-24T15:30:42.182Z,22.90
2018-05-24T15:33:10.567Z,22.70
2018-05-24T15:35:38.940Z,22.50
2018-05-24T15:38:07.330Z,22.30
2018-05-24T15:40:35.027Z,22.30
2018-05-24T15:43:02.620Z,22.10
2018-05-24T15:45:30.270Z,21.90
2018-05-24T15:47:57.857Z,21.70
2018-05-24T15:50:26.289Z,21.60
2018-05-24T15:52:53.905Z,21.50
2018-05-24T15:55:22.312Z,21.50
2018-05-24T15:57:49.924Z,21.40
2018-05-24T16:00:18.348Z,21.30
2018-05-24T16:02:46.002Z,21.30
2018-05-24T16:05:13.608Z,21.20
2018-05-24T16:07:41.225Z,21.10
2018-05-24T16:10:08.865Z,21.10
2018-05-24T16:12:37.240Z,21.10
2018-05-24T16:15:05.680Z,21.00
2018-05-24T16:17:34.059Z,21.00
2018-05-24T16:20:01.673Z,21.00
2018-05-24T16:22:29.297Z,21.00
2018-05-24T16:24:57.031Z,21.10
2018-05-24T16:27:24.661Z,21.20
2018-05-24T16:29:52.274Z,21.40
2018-05-24T16:32:19.871Z,21.50
2018-05-24T16:34:47.487Z,21.50
2018-05-24T16:37:15.119Z,21.50
2018-05-24T16:39:42.770Z,21.30
2018-05-24T16:42:10.376Z,21.20
2018-05-24T16:44:38.011Z,21.10
2018-05-24T16:47:05.614Z,21.10
2018-05-24T16:49:33.975Z,20.90
2018-05-24T16:52:01.606Z,20.90
2018-05-24T16:54:29.294Z,20.90
2018-05-24T16:56:56.870Z,20.80
2018-05-24T16:59:25.230Z,20.80
2018-05-24T17:01:52.859Z,20.80
2018-05-24T17:04:20.483Z,20.80
2018-05-24T17:06:48.917Z,20.90
2018-05-24T17:09:16.556Z,20.80
2018-05-24T17:11:44.172Z,20.90
2018-05-24T17:14:12.544Z,20.90
2018-05-24T17:16:40.911Z,20.90
2018-05-24T17:19:08.540Z,20.90
2018-05-24T17:21:36.175Z,21.00
2018-05-24T17:24:03.831Z,21.00
2018-05-24T17:26:31.463Z,21.00
2018-05-24T17:28:59.076Z,21.10
2018-05-24T17:31:26.680Z,21.10
2018-05-24T17:33:54.321Z,21.20
2018-05-24T17:36:21.957Z,21.10
2018-05-24T17:38:49.580Z,21.10
2018-05-24T17:41:17.230Z,21.10
2018-05-24T17:43:45.623Z,20.70
2018-05-24T17:46:13.249Z,20.70
2018-05-24T17:48:41.672Z,20.40
2018-05-24T17:51:09.321Z,20.40
2018-05-24T17:53:36.949Z,20.50
2018-05-24T17:56:04.620Z,20.50
2018-05-24T17:58:34.699Z,20.60
2018-05-24T18:01:02.411Z,20.70
2018-05-24T18:03:30.776Z,20.60
2018-05-24T18:05:59.666Z,20.60
2018-05-24T18:08:27.253Z,20.50
2018-05-24T18:10:54.905Z,20.50
2018-05-24T18:13:23.293Z,20.50
2018-05-24T18:15:50.897Z,20.50
2018-05-24T18:18:18.517Z,20.50
2018-05-24T18:20:46.150Z,20.40
2018-05-24T18:23:14.558Z,20.30
2018-05-24T18:25:42.180Z,20.30
2018-05-24T18:28:10.680Z,20.30
2018-05-24T18:30:39.071Z,20.20
2018-05-24T18:33:06.720Z,20.20
2018-05-24T18:35:34.369Z,20.20
2018-05-24T18:38:02.731Z,20.10
2018-05-24T18:40:30.391Z,20.10
2018-05-24T18:42:58.100Z,20.10
2018-05-24T18:45:25.696Z,20.00
2018-05-24T18:47:53.345Z,19.90
2018-05-24T18:50:20.966Z,19.80
2018-05-24T18:52:49.361Z,19.60
2018-05-24T18:55:17.100Z,19.60
2018-05-24T18:57:45.465Z,19.40
2018-05-24T19:00:13.122Z,19.40
2018-05-24T19:02:40.770Z,19.40
2018-05-24T19:05:08.420Z,19.20
2018-05-24T19:07:36.041Z,19.10
2018-05-24T19:10:03.701Z,19.00
2018-05-24T19:12:31.332Z,19.00
2018-05-24T19:14:59.750Z,19.00
2018-05-24T19:17:27.420Z,19.00
2018-05-24T19:19:55.063Z,19.00
2018-05-24T19:22:22.682Z,19.00
2018-05-24T19:24:50.301Z,19.10
2018-05-24T19:27:17.921Z,19.10
2018-05-24T19:29:46.300Z,18.90
2018-05-24T19:32:14.659Z,18.90
2018-05-24T19:34:42.387Z,18.80
2018-05-24T19:37:10.010Z,18.80
2018-05-24T19:39:37.700Z,18.80
2018-05-24T19:42:05.340Z,18.70
2018-05-24T19:44:32.960Z,18.50
2018-05-24T19:47:00.560Z,18.60
2018-05-24T19:49:28.242Z,18.60
2018-05-24T19:51:56.830Z,18.50
2018-05-24T19:54:24.728Z,18.50
2018-05-24T19:56:52.480Z,18.50
2018-05-24T19:59:21.317Z,18.40
2018-05-24T20:01:48.965Z,18.40
2018-05-24T20:04:16.583Z,18.30
2018-05-24T20:06:44.190Z,18.20
2018-05-24T20:09:12.599Z,18.20
2018-05-24T20:11:40.216Z,18.20
2018-05-24T20:14:08.623Z,18.20
2018-05-24T20:16:36.235Z,18.20
2018-05-24T20:19:03.880Z,18.20
2018-05-24T20:21:31.596Z,18.20
2018-05-24T20:23:59.844Z,18.10
2018-05-24T20:26:28.277Z,18.10
2018-05-24T20:28:56.021Z,18.10
2018-05-24T20:31:23.771Z,18.10
2018-05-24T20:33:52.371Z,18.00
2018-05-24T20:36:20.351Z,18.00
2018-05-24T20:38:48.149Z,18.00
2018-05-24T20:41:15.961Z,18.00
2018-05-24T20:43:43.750Z,18.10
2018-05-24T20:46:11.363Z,18.00
2018-05-24T20:48:39.776Z,17.80
2018-05-24T20:51:07.761Z,17.80
2018-05-24T20:53:35.384Z,17.70
2018-05-24T20:56:02.998Z,17.70
2018-05-24T20:58:30.643Z,17.60
2018-05-24T21:00:58.279Z,17.50
2018-05-24T21:03:25.898Z,17.40
2018-05-24T21:05:53.502Z,17.30
2018-05-24T21:08:21.122Z,17.30
2018-05-24T21:10:48.753Z,17.30
2018-05-24T21:13:16.384Z,17.10
2018-05-24T21:15:44.015Z,17.00
2018-05-24T21:18:12.426Z,16.90
2018-05-24T21:20:40.041Z,16.90
2018-05-24T21:23:07.683Z,16.90
2018-05-24T21:25:39.270Z,16.80
2018-05-24T21:28:08.869Z,16.80
2018-05-24T21:30:36.502Z,16.80
2018-05-24T21:33:04.149Z,16.80
2018-05-24T21:35:31.825Z,16.70
2018-05-24T21:37:59.536Z,16.60
2018-05-24T21:40:27.166Z,16.50
2018-05-24T21:42:54.800Z,16.50
2018-05-24T21:45:22.463Z,16.50
2018-05-24T21:47:50.095Z,16.50
2018-05-24T21:50:17.748Z,16.60
2018-05-24T21:52:45.365Z,16.60
2018-05-24T21:55:12.966Z,16.60
2018-05-24T21:57:40.609Z,16.60
2018-05-24T22:00:09.020Z,16.60
2018-05-24T22:02:36.654Z,16.60
2018-05-24T22:05:05.069Z,16.50
2018-05-24T22:07:32.726Z,16.50
2018-05-24T22:10:00.372Z,16.50
2018-05-24T22:12:27.990Z,16.50
2018-05-24T22:14:55.580Z,16.60
2018-05-24T22:17:23.200Z,16.60
2018-05-24T22:19:50.805Z,16.60
2018-05-24T22:22:18.466Z,16.60
2018-05-24T22:24:46.090Z,16.60
2018-05-24T22:27:13.711Z,16.70
2018-05-24T22:29:41.320Z,16.70
2018-05-24T22:32:09.681Z,16.70
2018-05-24T22:34:37.318Z,16.70
2018-05-24T22:37:04.921Z,16.70
2018-05-24T22:39:33.286Z,16.70
2018-05-24T22:42:00.879Z,16.70
2018-05-24T22:44:28.472Z,16.70
2018-05-24T22:46:56.866Z,16.60
2018-05-24T22:49:24.481Z,16.60
2018-05-24T22:51:52.079Z,16.60
2018-05-24T22:54:19.684Z,16.70
2018-05-24T22:56:48.086Z,16.70
2018-05-24T22:59:15.732Z,16.70
2018-05-24T23:01:43.369Z,16.60
2018-05-24T23:04:10.956Z,16.60
2018-05-24T23:06:38.560Z,16.60
2018-05-24T23:09:06.168Z,16.50
2018-05-24T23:11:33.819Z,16.50
2018-05-24T23:14:02.185Z,16.40
2018-05-24T23:16:29.820Z,16.40
2018-05-24T23:18:57.414Z,16.30
2018-05-24T23:21:25.763Z,16.30
2018-05-24T23:23:53.411Z,16.30
2018-05-24T23:26:21.076Z,16.30
2018-05-24T23:28:48.690Z,16.30
2018-05-24T23:31:16.286Z,16.30
2018-05-24T23:33:43.885Z,16.30
2018-05-24T23:36:11.506Z,16.40
2018-05-24T23:38:39.116Z,16.40
2018-05-24T23:41:06.754Z,16.40
2018-05-24T23:43:34.389Z,16.30
2018-05-24T23:46:03.148Z,16.30
2018-05-24T23:48:30.827Z,16.30
2018-05-24T23:50:58.430Z,16.30
2018-05-24T23:53:26.037Z,16.30
2018-05-24T23:55:53.638Z,16.20
2018-05-24T23:58:21.237Z,16.20
